sensor_id;sensor_type;location;lat;lon;timestamp;temperature;humidity
23633;DHT22;11993;48.748;9.166;2023-08-06T00:02:20;15.60;85.10
23633;DHT22;11993;48.748;9.166;2023-08-06T00:04:46;15.70;85.40
23633;DHT22;11993;48.748;9.166;2023-08-06T00:07:11;15.90;84.70
23633;DHT22;11993;48.748;9.166;2023-08-06T00:09:37;15.90;84.50
23633;DHT22;11993;48.748;9.166;2023-08-06T00:12:02;16.00;84.20
23633;DHT22;11993;48.748;9.166;2023-08-06T00:14:28;15.90;84.30
23633;DHT22;11993;48.748;9.166;2023-08-06T00:16:54;15.70;83.70
23633;DHT22;11993;48.748;9.166;2023-08-06T00:19:19;15.70;83.40
23633;DHT22;11993;48.748;9.166;2023-08-06T00:21:45;15.70;83.10
23633;DHT22;11993;48.748;9.166;2023-08-06T00:24:10;15.60;83.30
23633;DHT22;11993;48.748;9.166;2023-08-06T00:26:36;15.60;83.10
23633;DHT22;11993;48.748;9.166;2023-08-06T00:29:02;15.60;82.60
23633;DHT22;11993;48.748;9.166;2023-08-06T00:31:27;15.60;82.10
23633;DHT22;11993;48.748;9.166;2023-08-06T00:33:53;15.60;82.10
23633;DHT22;11993;48.748;9.166;2023-08-06T00:36:18;15.60;82.20
23633;DHT22;11993;48.748;9.166;2023-08-06T00:38:44;15.60;81.90
23633;DHT22;11993;48.748;9.166;2023-08-06T00:41:10;15.40;82.40
23633;DHT22;11993;48.748;9.166;2023-08-06T00:43:35;15.60;81.90
23633;DHT22;11993;48.748;9.166;2023-08-06T00:46:01;15.60;82.00
23633;DHT22;11993;48.748;9.166;2023-08-06T00:48:27;15.60;82.40
23633;DHT22;11993;48.748;9.166;2023-08-06T00:50:52;15.30;83.50
23633;DHT22;11993;48.748;9.166;2023-08-06T00:53:18;15.40;82.80
23633;DHT22;11993;48.748;9.166;2023-08-06T00:55:44;15.30;82.90
23633;DHT22;11993;48.748;9.166;2023-08-06T00:58:11;15.30;81.70
23633;DHT22;11993;48.748;9.166;2023-08-06T01:00:38;15.40;81.20
23633;DHT22;11993;48.748;9.166;2023-08-06T01:03:04;15.20;81.60
23633;DHT22;11993;48.748;9.166;2023-08-06T01:05:29;15.20;81.50
23633;DHT22;11993;48.748;9.166;2023-08-06T01:10:50;15.10;81.60
23633;DHT22;11993;48.748;9.166;2023-08-06T01:13:24;15.20;81.50
23633;DHT22;11993;48.748;9.166;2023-08-06T01:15:56;15.10;81.50
23633;DHT22;11993;48.748;9.166;2023-08-06T01:18:23;15.20;81.00
23633;DHT22;11993;48.748;9.166;2023-08-06T01:20:49;15.20;80.50
23633;DHT22;11993;48.748;9.166;2023-08-06T01:23:15;15.10;81.00
23633;DHT22;11993;48.748;9.166;2023-08-06T01:25:51;14.80;81.80
23633;DHT22;11993;48.748;9.166;2023-08-06T01:28:26;14.90;81.70
23633;DHT22;11993;48.748;9.166;2023-08-06T01:30:55;14.90;81.50
23633;DHT22;11993;48.748;9.166;2023-08-06T01:33:27;15.00;81.50
23633;DHT22;11993;48.748;9.166;2023-08-06T01:35:54;14.90;81.90
23633;DHT22;11993;48.748;9.166;2023-08-06T01:38:21;14.70;82.40
23633;DHT22;11993;48.748;9.166;2023-08-06T01:40:46;14.80;81.70
23633;DHT22;11993;48.748;9.166;2023-08-06T01:43:12;14.80;81.50
23633;DHT22;11993;48.748;9.166;2023-08-06T01:45:37;14.80;81.10
23633;DHT22;11993;48.748;9.166;2023-08-06T01:48:03;14.80;81.80
23633;DHT22;11993;48.748;9.166;2023-08-06T01:50:29;14.60;82.40
23633;DHT22;11993;48.748;9.166;2023-08-06T01:52:54;14.60;82.50
23633;DHT22;11993;48.748;9.166;2023-08-06T01:55:20;14.60;82.80
23633;DHT22;11993;48.748;9.166;2023-08-06T01:57:45;14.60;82.80
23633;DHT22;11993;48.748;9.166;2023-08-06T02:00:11;14.60;82.50
23633;DHT22;11993;48.748;9.166;2023-08-06T02:02:37;14.60;82.20
23633;DHT22;11993;48.748;9.166;2023-08-06T02:05:03;14.60;82.50
23633;DHT22;11993;48.748;9.166;2023-08-06T02:07:28;14.50;82.50
23633;DHT22;11993;48.748;9.166;2023-08-06T02:09:54;14.30;83.30
23633;DHT22;11993;48.748;9.166;2023-08-06T02:12:19;14.20;83.40
23633;DHT22;11993;48.748;9.166;2023-08-06T02:14:45;14.20;83.70
23633;DHT22;11993;48.748;9.166;2023-08-06T02:17:10;14.30;83.60
23633;DHT22;11993;48.748;9.166;2023-08-06T02:19:36;14.30;83.40
23633;DHT22;11993;48.748;9.166;2023-08-06T02:22:01;14.10;84.10
23633;DHT22;11993;48.748;9.166;2023-08-06T02:24:28;14.10;84.30
23633;DHT22;11993;48.748;9.166;2023-08-06T02:26:53;14.20;84.10
23633;DHT22;11993;48.748;9.166;2023-08-06T02:29:21;14.10;84.20
23633;DHT22;11993;48.748;9.166;2023-08-06T02:31:46;13.90;84.60
23633;DHT22;11993;48.748;9.166;2023-08-06T02:34:12;13.70;85.20
23633;DHT22;11993;48.748;9.166;2023-08-06T02:36:37;13.60;85.40
23633;DHT22;11993;48.748;9.166;2023-08-06T02:39:03;13.70;84.70
23633;DHT22;11993;48.748;9.166;2023-08-06T02:41:28;13.60;84.90
23633;DHT22;11993;48.748;9.166;2023-08-06T02:43:54;13.60;85.20
23633;DHT22;11993;48.748;9.166;2023-08-06T02:46:19;13.60;84.90
23633;DHT22;11993;48.748;9.166;2023-08-06T02:48:45;13.60;85.10
23633;DHT22;11993;48.748;9.166;2023-08-06T02:51:10;13.60;84.90
23633;DHT22;11993;48.748;9.166;2023-08-06T02:53:36;13.60;84.30
23633;DHT22;11993;48.748;9.166;2023-08-06T02:56:01;13.60;84.60
23633;DHT22;11993;48.748;9.166;2023-08-06T02:58:27;13.50;84.70
23633;DHT22;11993;48.748;9.166;2023-08-06T03:01:00;13.40;85.10
23633;DHT22;11993;48.748;9.166;2023-08-06T03:03:28;13.50;84.70
23633;DHT22;11993;48.748;9.166;2023-08-06T03:05:54;13.50;84.90
23633;DHT22;11993;48.748;9.166;2023-08-06T03:08:19;13.40;84.50
23633;DHT22;11993;48.748;9.166;2023-08-06T03:10:49;13.50;84.50
23633;DHT22;11993;48.748;9.166;2023-08-06T03:13:16;13.40;84.90
23633;DHT22;11993;48.748;9.166;2023-08-06T03:15:41;13.50;84.60
23633;DHT22;11993;48.748;9.166;2023-08-06T03:18:07;13.40;84.90
23633;DHT22;11993;48.748;9.166;2023-08-06T03:20:32;13.30;85.40
23633;DHT22;11993;48.748;9.166;2023-08-06T03:22:58;13.30;85.40
23633;DHT22;11993;48.748;9.166;2023-08-06T03:25:23;13.30;85.30
23633;DHT22;11993;48.748;9.166;2023-08-06T03:27:49;13.40;84.60
23633;DHT22;11993;48.748;9.166;2023-08-06T03:30:14;13.30;84.80
23633;DHT22;11993;48.748;9.166;2023-08-06T03:32:40;13.40;84.80
23633;DHT22;11993;48.748;9.166;2023-08-06T03:35:06;13.40;84.30
23633;DHT22;11993;48.748;9.166;2023-08-06T03:37:32;13.50;84.30
23633;DHT22;11993;48.748;9.166;2023-08-06T03:39:57;13.50;84.10
23633;DHT22;11993;48.748;9.166;2023-08-06T03:42:23;13.50;83.80
23633;DHT22;11993;48.748;9.166;2023-08-06T03:44:48;13.60;83.50
23633;DHT22;11993;48.748;9.166;2023-08-06T03:47:14;13.60;83.30
23633;DHT22;11993;48.748;9.166;2023-08-06T03:49:39;13.60;83.40
23633;DHT22;11993;48.748;9.166;2023-08-06T03:52:05;13.60;83.20
23633;DHT22;11993;48.748;9.166;2023-08-06T03:54:31;13.60;83.60
23633;DHT22;11993;48.748;9.166;2023-08-06T03:56:56;13.60;83.60
23633;DHT22;11993;48.748;9.166;2023-08-06T03:59:22;13.60;83.40
23633;DHT22;11993;48.748;9.166;2023-08-06T04:01:47;13.70;83.70
23633;DHT22;11993;48.748;9.166;2023-08-06T04:04:13;13.70;83.20
23633;DHT22;11993;48.748;9.166;2023-08-06T04:06:38;13.60;84.10
23633;DHT22;11993;48.748;9.166;2023-08-06T04:09:04;13.70;83.70
23633;DHT22;11993;48.748;9.166;2023-08-06T04:11:29;13.80;83.50
23633;DHT22;11993;48.748;9.166;2023-08-06T04:13:55;13.70;84.00
23633;DHT22;11993;48.748;9.166;2023-08-06T04:16:21;13.70;84.00
23633;DHT22;11993;48.748;9.166;2023-08-06T04:18:47;13.80;83.80
23633;DHT22;11993;48.748;9.166;2023-08-06T04:21:12;13.90;83.70
23633;DHT22;11993;48.748;9.166;2023-08-06T04:23:39;14.00;83.80
23633;DHT22;11993;48.748;9.166;2023-08-06T04:26:05;13.90;83.80
23633;DHT22;11993;48.748;9.166;2023-08-06T04:28:30;13.90;83.70
23633;DHT22;11993;48.748;9.166;2023-08-06T04:30:56;13.90;84.10
23633;DHT22;11993;48.748;9.166;2023-08-06T04:33:21;14.00;84.10
23633;DHT22;11993;48.748;9.166;2023-08-06T04:35:47;13.80;84.30
23633;DHT22;11993;48.748;9.166;2023-08-06T04:38:12;13.90;84.10
23633;DHT22;11993;48.748;9.166;2023-08-06T04:40:38;13.90;84.50
23633;DHT22;11993;48.748;9.166;2023-08-06T04:43:03;13.90;84.40
23633;DHT22;11993;48.748;9.166;2023-08-06T04:45:29;13.90;84.50
23633;DHT22;11993;48.748;9.166;2023-08-06T04:47:55;14.00;84.40
23633;DHT22;11993;48.748;9.166;2023-08-06T04:50:20;13.90;84.60
23633;DHT22;11993;48.748;9.166;2023-08-06T04:52:46;13.90;84.50
23633;DHT22;11993;48.748;9.166;2023-08-06T04:55:11;13.90;84.40
23633;DHT22;11993;48.748;9.166;2023-08-06T04:57:37;14.00;84.60
23633;DHT22;11993;48.748;9.166;2023-08-06T05:00:03;14.00;84.60
23633;DHT22;11993;48.748;9.166;2023-08-06T05:02:30;14.00;84.40
23633;DHT22;11993;48.748;9.166;2023-08-06T05:04:57;14.00;84.70
23633;DHT22;11993;48.748;9.166;2023-08-06T05:07:23;13.90;84.80
23633;DHT22;11993;48.748;9.166;2023-08-06T05:09:48;13.90;85.20
23633;DHT22;11993;48.748;9.166;2023-08-06T05:12:14;14.10;84.70
23633;DHT22;11993;48.748;9.166;2023-08-06T05:14:40;14.00;85.20
23633;DHT22;11993;48.748;9.166;2023-08-06T05:17:05;14.10;85.40
23633;DHT22;11993;48.748;9.166;2023-08-06T05:19:31;14.10;85.30
23633;DHT22;11993;48.748;9.166;2023-08-06T05:21:56;14.10;84.80
23633;DHT22;11993;48.748;9.166;2023-08-06T05:24:22;14.10;85.10
23633;DHT22;11993;48.748;9.166;2023-08-06T05:26:47;14.00;85.20
23633;DHT22;11993;48.748;9.166;2023-08-06T05:29:13;14.10;85.50
23633;DHT22;11993;48.748;9.166;2023-08-06T05:31:39;14.30;84.80
23633;DHT22;11993;48.748;9.166;2023-08-06T05:34:04;14.20;84.10
23633;DHT22;11993;48.748;9.166;2023-08-06T05:36:30;14.40;83.40
23633;DHT22;11993;48.748;9.166;2023-08-06T05:38:55;14.40;83.50
23633;DHT22;11993;48.748;9.166;2023-08-06T05:41:21;14.40;83.00
23633;DHT22;11993;48.748;9.166;2023-08-06T05:43:46;14.60;83.00
23633;DHT22;11993;48.748;9.166;2023-08-06T05:46:12;14.50;82.30
23633;DHT22;11993;48.748;9.166;2023-08-06T05:48:37;14.40;82.70
23633;DHT22;11993;48.748;9.166;2023-08-06T05:51:03;14.40;82.70
23633;DHT22;11993;48.748;9.166;2023-08-06T05:53:29;14.50;82.70
23633;DHT22;11993;48.748;9.166;2023-08-06T05:55:54;14.40;82.70
23633;DHT22;11993;48.748;9.166;2023-08-06T05:58:20;14.30;83.00
23633;DHT22;11993;48.748;9.166;2023-08-06T06:00:45;14.40;82.80
23633;DHT22;11993;48.748;9.166;2023-08-06T06:03:11;14.30;82.10
23633;DHT22;11993;48.748;9.166;2023-08-06T06:05:39;14.20;82.20
23633;DHT22;11993;48.748;9.166;2023-08-06T06:08:05;14.20;82.50
23633;DHT22;11993;48.748;9.166;2023-08-06T06:10:30;14.20;82.10
23633;DHT22;11993;48.748;9.166;2023-08-06T06:12:56;14.10;81.80
23633;DHT22;11993;48.748;9.166;2023-08-06T06:15:22;14.10;82.00
23633;DHT22;11993;48.748;9.166;2023-08-06T06:17:47;14.10;82.60
23633;DHT22;11993;48.748;9.166;2023-08-06T06:20:13;14.10;82.90
23633;DHT22;11993;48.748;9.166;2023-08-06T06:22:39;14.00;82.60
23633;DHT22;11993;48.748;9.166;2023-08-06T06:25:05;14.10;82.40
23633;DHT22;11993;48.748;9.166;2023-08-06T06:27:30;14.20;82.20
23633;DHT22;11993;48.748;9.166;2023-08-06T06:29:56;14.20;83.50
23633;DHT22;11993;48.748;9.166;2023-08-06T06:32:22;14.10;83.50
23633;DHT22;11993;48.748;9.166;2023-08-06T06:34:47;14.10;83.80
23633;DHT22;11993;48.748;9.166;2023-08-06T06:37:13;14.10;84.10
23633;DHT22;11993;48.748;9.166;2023-08-06T06:39:39;14.10;84.20
23633;DHT22;11993;48.748;9.166;2023-08-06T06:42:04;14.00;84.80
23633;DHT22;11993;48.748;9.166;2023-08-06T06:44:30;14.10;84.50
23633;DHT22;11993;48.748;9.166;2023-08-06T06:46:55;14.20;84.60
23633;DHT22;11993;48.748;9.166;2023-08-06T06:49:21;14.20;84.50
23633;DHT22;11993;48.748;9.166;2023-08-06T06:51:46;14.30;84.40
23633;DHT22;11993;48.748;9.166;2023-08-06T06:54:12;14.30;84.40
23633;DHT22;11993;48.748;9.166;2023-08-06T06:56:38;14.10;84.70
23633;DHT22;11993;48.748;9.166;2023-08-06T06:59:03;14.10;85.00
23633;DHT22;11993;48.748;9.166;2023-08-06T07:01:29;13.80;85.50
23633;DHT22;11993;48.748;9.166;2023-08-06T07:03:54;13.90;85.30
23633;DHT22;11993;48.748;9.166;2023-08-06T07:06:20;13.90;86.20
23633;DHT22;11993;48.748;9.166;2023-08-06T07:08:45;13.90;86.00
23633;DHT22;11993;48.748;9.166;2023-08-06T07:13:37;13.90;86.00
23633;DHT22;11993;48.748;9.166;2023-08-06T07:16:03;13.70;86.40
23633;DHT22;11993;48.748;9.166;2023-08-06T07:18:28;13.90;87.20
23633;DHT22;11993;48.748;9.166;2023-08-06T07:20:55;13.80;87.40
23633;DHT22;11993;48.748;9.166;2023-08-06T07:23:22;13.70;87.60
23633;DHT22;11993;48.748;9.166;2023-08-06T07:25:48;13.70;88.00
23633;DHT22;11993;48.748;9.166;2023-08-06T07:28:16;13.90;87.80
23633;DHT22;11993;48.748;9.166;2023-08-06T07:30:43;13.80;87.70
23633;DHT22;11993;48.748;9.166;2023-08-06T07:33:10;13.90;87.90
23633;DHT22;11993;48.748;9.166;2023-08-06T07:35:36;13.90;87.60
23633;DHT22;11993;48.748;9.166;2023-08-06T07:38:02;13.90;88.00
23633;DHT22;11993;48.748;9.166;2023-08-06T07:40:27;13.60;88.20
23633;DHT22;11993;48.748;9.166;2023-08-06T07:42:54;13.80;87.60
23633;DHT22;11993;48.748;9.166;2023-08-06T07:45:19;13.90;87.60
23633;DHT22;11993;48.748;9.166;2023-08-06T07:47:45;13.90;87.10
23633;DHT22;11993;48.748;9.166;2023-08-06T07:50:10;13.90;87.10
23633;DHT22;11993;48.748;9.166;2023-08-06T07:52:36;13.90;87.10
23633;DHT22;11993;48.748;9.166;2023-08-06T07:55:02;14.00;86.70
23633;DHT22;11993;48.748;9.166;2023-08-06T07:57:31;13.90;86.80
23633;DHT22;11993;48.748;9.166;2023-08-06T07:59:57;13.90;86.60
23633;DHT22;11993;48.748;9.166;2023-08-06T08:02:22;14.10;86.40
23633;DHT22;11993;48.748;9.166;2023-08-06T08:04:48;14.10;86.00
23633;DHT22;11993;48.748;9.166;2023-08-06T08:07:14;14.20;86.10
23633;DHT22;11993;48.748;9.166;2023-08-06T08:09:39;14.40;86.00
23633;DHT22;11993;48.748;9.166;2023-08-06T08:12:05;14.20;84.30
23633;DHT22;11993;48.748;9.166;2023-08-06T08:14:31;14.40;85.30
23633;DHT22;11993;48.748;9.166;2023-08-06T08:17:03;14.40;84.60
23633;DHT22;11993;48.748;9.166;2023-08-06T08:19:30;14.40;84.30
23633;DHT22;11993;48.748;9.166;2023-08-06T08:21:55;14.70;84.30
23633;DHT22;11993;48.748;9.166;2023-08-06T08:24:21;14.60;84.50
23633;DHT22;11993;48.748;9.166;2023-08-06T08:26:50;14.70;84.50
23633;DHT22;11993;48.748;9.166;2023-08-06T08:29:15;14.60;84.30
23633;DHT22;11993;48.748;9.166;2023-08-06T08:31:41;14.70;84.70
23633;DHT22;11993;48.748;9.166;2023-08-06T08:34:06;14.70;84.10
23633;DHT22;11993;48.748;9.166;2023-08-06T08:36:32;14.70;84.30
23633;DHT22;11993;48.748;9.166;2023-08-06T08:38:58;14.70;84.30
23633;DHT22;11993;48.748;9.166;2023-08-06T08:41:23;14.30;83.40
23633;DHT22;11993;48.748;9.166;2023-08-06T08:43:50;14.40;83.80
23633;DHT22;11993;48.748;9.166;2023-08-06T08:46:19;14.00;85.10
23633;DHT22;11993;48.748;9.166;2023-08-06T08:48:45;14.20;84.50
23633;DHT22;11993;48.748;9.166;2023-08-06T08:51:12;14.30;84.40
23633;DHT22;11993;48.748;9.166;2023-08-06T08:53:38;14.50;84.00
23633;DHT22;11993;48.748;9.166;2023-08-06T08:56:05;14.60;83.90
23633;DHT22;11993;48.748;9.166;2023-08-06T08:58:32;14.50;83.90
23633;DHT22;11993;48.748;9.166;2023-08-06T09:00:58;14.70;83.90
23633;DHT22;11993;48.748;9.166;2023-08-06T09:03:23;14.60;83.80
23633;DHT22;11993;48.748;9.166;2023-08-06T09:05:53;14.40;84.40
23633;DHT22;11993;48.748;9.166;2023-08-06T09:08:24;14.30;85.00
23633;DHT22;11993;48.748;9.166;2023-08-06T09:10:53;14.60;84.90
23633;DHT22;11993;48.748;9.166;2023-08-06T09:13:20;14.60;84.30
23633;DHT22;11993;48.748;9.166;2023-08-06T09:15:46;14.70;83.40
23633;DHT22;11993;48.748;9.166;2023-08-06T09:18:12;14.90;83.30
23633;DHT22;11993;48.748;9.166;2023-08-06T09:20:39;15.00;82.60
23633;DHT22;11993;48.748;9.166;2023-08-06T09:23:11;15.20;82.80
23633;DHT22;11993;48.748;9.166;2023-08-06T09:25:40;15.10;82.00
23633;DHT22;11993;48.748;9.166;2023-08-06T09:28:06;15.10;81.90
23633;DHT22;11993;48.748;9.166;2023-08-06T09:30:33;15.00;82.80
23633;DHT22;11993;48.748;9.166;2023-08-06T09:32:59;15.10;82.30
23633;DHT22;11993;48.748;9.166;2023-08-06T09:35:28;15.20;82.00
23633;DHT22;11993;48.748;9.166;2023-08-06T09:37:54;15.00;82.30
23633;DHT22;11993;48.748;9.166;2023-08-06T09:40:29;15.10;82.40
23633;DHT22;11993;48.748;9.166;2023-08-06T09:42:56;15.10;81.90
23633;DHT22;11993;48.748;9.166;2023-08-06T09:45:22;15.30;82.10
23633;DHT22;11993;48.748;9.166;2023-08-06T09:47:49;15.30;81.90
23633;DHT22;11993;48.748;9.166;2023-08-06T09:50:18;15.30;82.20
23633;DHT22;11993;48.748;9.166;2023-08-06T09:52:45;15.50;82.30
23633;DHT22;11993;48.748;9.166;2023-08-06T09:55:13;15.60;81.70
23633;DHT22;11993;48.748;9.166;2023-08-06T09:57:40;15.40;81.00
23633;DHT22;11993;48.748;9.166;2023-08-06T10:00:09;15.40;81.90
23633;DHT22;11993;48.748;9.166;2023-08-06T10:02:37;15.50;82.20
23633;DHT22;11993;48.748;9.166;2023-08-06T10:05:05;15.40;82.20
23633;DHT22;11993;48.748;9.166;2023-08-06T10:07:31;15.40;82.70
23633;DHT22;11993;48.748;9.166;2023-08-06T10:09:57;15.50;82.70
23633;DHT22;11993;48.748;9.166;2023-08-06T10:12:23;15.20;82.90
23633;DHT22;11993;48.748;9.166;2023-08-06T10:14:54;15.20;83.60
23633;DHT22;11993;48.748;9.166;2023-08-06T10:17:22;15.10;84.10
23633;DHT22;11993;48.748;9.166;2023-08-06T10:19:50;15.10;84.10
23633;DHT22;11993;48.748;9.166;2023-08-06T10:22:19;15.10;84.60
23633;DHT22;11993;48.748;9.166;2023-08-06T10:24:54;15.20;84.90
23633;DHT22;11993;48.748;9.166;2023-08-06T10:27:31;15.00;84.00
23633;DHT22;11993;48.748;9.166;2023-08-06T10:32:54;15.10;83.70
23633;DHT22;11993;48.748;9.166;2023-08-06T10:38:07;15.30;83.80
23633;DHT22;11993;48.748;9.166;2023-08-06T10:40:33;15.20;83.60
23633;DHT22;11993;48.748;9.166;2023-08-06T10:43:03;15.30;83.30
23633;DHT22;11993;48.748;9.166;2023-08-06T10:45:29;15.20;83.20
23633;DHT22;11993;48.748;9.166;2023-08-06T10:47:56;15.20;83.40
23633;DHT22;11993;48.748;9.166;2023-08-06T10:50:23;15.20;82.50
23633;DHT22;11993;48.748;9.166;2023-08-06T10:52:49;15.30;82.30
23633;DHT22;11993;48.748;9.166;2023-08-06T10:55:31;14.90;83.80
23633;DHT22;11993;48.748;9.166;2023-08-06T10:57:58;15.00;82.60
23633;DHT22;11993;48.748;9.166;2023-08-06T11:00:23;15.10;82.50
23633;DHT22;11993;48.748;9.166;2023-08-06T11:02:49;15.10;82.50
23633;DHT22;11993;48.748;9.166;2023-08-06T11:05:16;15.30;82.70
23633;DHT22;11993;48.748;9.166;2023-08-06T11:07:42;15.40;81.80
23633;DHT22;11993;48.748;9.166;2023-08-06T11:10:09;15.60;82.60
23633;DHT22;11993;48.748;9.166;2023-08-06T11:12:35;15.80;82.80
23633;DHT22;11993;48.748;9.166;2023-08-06T11:15:02;15.70;82.10
23633;DHT22;11993;48.748;9.166;2023-08-06T11:17:29;15.60;81.40
23633;DHT22;11993;48.748;9.166;2023-08-06T11:19:55;15.50;82.00
23633;DHT22;11993;48.748;9.166;2023-08-06T11:22:22;15.10;82.30
23633;DHT22;11993;48.748;9.166;2023-08-06T11:24:50;15.00;82.50
23633;DHT22;11993;48.748;9.166;2023-08-06T11:27:19;15.10;83.40
23633;DHT22;11993;48.748;9.166;2023-08-06T11:29:44;15.30;83.10
23633;DHT22;11993;48.748;9.166;2023-08-06T11:32:10;15.50;83.10
23633;DHT22;11993;48.748;9.166;2023-08-06T11:34:37;15.90;81.10
23633;DHT22;11993;48.748;9.166;2023-08-06T11:37:06;16.00;79.30
23633;DHT22;11993;48.748;9.166;2023-08-06T11:39:36;15.80;79.80
23633;DHT22;11993;48.748;9.166;2023-08-06T11:42:08;15.60;78.90
23633;DHT22;11993;48.748;9.166;2023-08-06T11:44:36;15.60;79.00
23633;DHT22;11993;48.748;9.166;2023-08-06T11:47:04;15.50;79.50
23633;DHT22;11993;48.748;9.166;2023-08-06T11:49:49;15.40;78.80
23633;DHT22;11993;48.748;9.166;2023-08-06T11:52:24;15.30;79.20
23633;DHT22;11993;48.748;9.166;2023-08-06T11:55:03;15.20;78.70
23633;DHT22;11993;48.748;9.166;2023-08-06T11:57:32;15.10;79.20
23633;DHT22;11993;48.748;9.166;2023-08-06T12:00:04;15.10;78.80
23633;DHT22;11993;48.748;9.166;2023-08-06T12:02:33;14.80;79.80
23633;DHT22;11993;48.748;9.166;2023-08-06T12:05:19;14.60;80.00
23633;DHT22;11993;48.748;9.166;2023-08-06T12:07:58;14.60;80.70
23633;DHT22;11993;48.748;9.166;2023-08-06T12:10:28;14.70;80.20
23633;DHT22;11993;48.748;9.166;2023-08-06T12:12:54;14.90;79.80
23633;DHT22;11993;48.748;9.166;2023-08-06T12:15:21;14.90;79.40
23633;DHT22;11993;48.748;9.166;2023-08-06T12:17:46;14.60;78.90
23633;DHT22;11993;48.748;9.166;2023-08-06T12:20:12;14.60;79.20
23633;DHT22;11993;48.748;9.166;2023-08-06T12:22:38;14.70;79.70
23633;DHT22;11993;48.748;9.166;2023-08-06T12:25:09;14.80;79.20
23633;DHT22;11993;48.748;9.166;2023-08-06T12:27:46;14.90;78.60
23633;DHT22;11993;48.748;9.166;2023-08-06T12:30:12;15.00;78.80
23633;DHT22;11993;48.748;9.166;2023-08-06T12:32:38;15.10;79.00
23633;DHT22;11993;48.748;9.166;2023-08-06T12:35:05;15.10;78.30
23633;DHT22;11993;48.748;9.166;2023-08-06T12:37:32;15.10;78.30
23633;DHT22;11993;48.748;9.166;2023-08-06T12:39:58;15.20;78.00
23633;DHT22;11993;48.748;9.166;2023-08-06T12:42:24;15.20;76.60
23633;DHT22;11993;48.748;9.166;2023-08-06T12:44:49;15.30;77.10
23633;DHT22;11993;48.748;9.166;2023-08-06T12:47:18;15.70;76.90
23633;DHT22;11993;48.748;9.166;2023-08-06T12:49:45;15.60;75.50
23633;DHT22;11993;48.748;9.166;2023-08-06T12:52:10;15.60;75.30
23633;DHT22;11993;48.748;9.166;2023-08-06T12:54:38;15.50;75.50
23633;DHT22;11993;48.748;9.166;2023-08-06T12:57:04;15.50;76.90
23633;DHT22;11993;48.748;9.166;2023-08-06T12:59:30;15.60;75.60
23633;DHT22;11993;48.748;9.166;2023-08-06T13:01:56;15.60;75.40
23633;DHT22;11993;48.748;9.166;2023-08-06T13:04:22;15.70;75.50
23633;DHT22;11993;48.748;9.166;2023-08-06T13:06:48;15.60;74.60
23633;DHT22;11993;48.748;9.166;2023-08-06T13:09:13;15.50;74.00
23633;DHT22;11993;48.748;9.166;2023-08-06T13:11:40;15.60;74.60
23633;DHT22;11993;48.748;9.166;2023-08-06T13:14:10;15.60;73.70
23633;DHT22;11993;48.748;9.166;2023-08-06T13:16:37;15.80;73.70
23633;DHT22;11993;48.748;9.166;2023-08-06T13:19:03;15.80;72.90
23633;DHT22;11993;48.748;9.166;2023-08-06T13:22:02;16.20;72.40
23633;DHT22;11993;48.748;9.166;2023-08-06T13:24:29;16.50;70.90
23633;DHT22;11993;48.748;9.166;2023-08-06T13:26:55;16.70;69.80
23633;DHT22;11993;48.748;9.166;2023-08-06T13:29:20;16.70;69.80
23633;DHT22;11993;48.748;9.166;2023-08-06T13:31:46;16.60;70.00
23633;DHT22;11993;48.748;9.166;2023-08-06T13:34:11;16.30;69.50
23633;DHT22;11993;48.748;9.166;2023-08-06T13:36:37;16.40;70.00
23633;DHT22;11993;48.748;9.166;2023-08-06T13:39:03;16.00;70.60
23633;DHT22;11993;48.748;9.166;2023-08-06T13:41:30;16.00;69.60
23633;DHT22;11993;48.748;9.166;2023-08-06T13:43:55;16.10;70.30
23633;DHT22;11993;48.748;9.166;2023-08-06T13:46:21;15.90;70.90
23633;DHT22;11993;48.748;9.166;2023-08-06T13:48:47;15.90;71.00
23633;DHT22;11993;48.748;9.166;2023-08-06T13:51:16;15.90;71.30
23633;DHT22;11993;48.748;9.166;2023-08-06T13:53:41;15.90;69.50
23633;DHT22;11993;48.748;9.166;2023-08-06T13:56:08;16.10;69.90
23633;DHT22;11993;48.748;9.166;2023-08-06T13:58:37;15.90;70.10
23633;DHT22;11993;48.748;9.166;2023-08-06T14:01:03;15.90;70.10
23633;DHT22;11993;48.748;9.166;2023-08-06T14:03:29;16.10;69.80
23633;DHT22;11993;48.748;9.166;2023-08-06T14:05:54;16.30;69.20
23633;DHT22;11993;48.748;9.166;2023-08-06T14:08:24;16.20;69.10
23633;DHT22;11993;48.748;9.166;2023-08-06T14:10:51;16.30;69.10
23633;DHT22;11993;48.748;9.166;2023-08-06T14:13:19;16.40;69.80
23633;DHT22;11993;48.748;9.166;2023-08-06T14:15:47;16.20;69.00
23633;DHT22;11993;48.748;9.166;2023-08-06T14:18:14;16.20;68.70
23633;DHT22;11993;48.748;9.166;2023-08-06T14:20:40;16.10;69.30
23633;DHT22;11993;48.748;9.166;2023-08-06T14:23:06;16.20;69.30
23633;DHT22;11993;48.748;9.166;2023-08-06T14:25:31;16.30;68.00
23633;DHT22;11993;48.748;9.166;2023-08-06T14:27:57;16.20;69.70
23633;DHT22;11993;48.748;9.166;2023-08-06T14:30:23;16.30;68.80
23633;DHT22;11993;48.748;9.166;2023-08-06T14:32:48;16.30;69.00
23633;DHT22;11993;48.748;9.166;2023-08-06T14:35:14;16.40;69.30
23633;DHT22;11993;48.748;9.166;2023-08-06T14:37:40;16.30;69.20
23633;DHT22;11993;48.748;9.166;2023-08-06T14:40:07;16.40;69.20
23633;DHT22;11993;48.748;9.166;2023-08-06T14:42:33;16.30;69.90
23633;DHT22;11993;48.748;9.166;2023-08-06T14:44:58;16.20;70.20
23633;DHT22;11993;48.748;9.166;2023-08-06T14:47:24;16.10;71.20
23633;DHT22;11993;48.748;9.166;2023-08-06T14:49:53;15.80;72.20
23633;DHT22;11993;48.748;9.166;2023-08-06T14:52:18;15.50;73.70
23633;DHT22;11993;48.748;9.166;2023-08-06T14:54:44;15.70;74.60
23633;DHT22;11993;48.748;9.166;2023-08-06T14:57:09;15.90;74.40
23633;DHT22;11993;48.748;9.166;2023-08-06T14:59:37;15.80;74.00
23633;DHT22;11993;48.748;9.166;2023-08-06T15:02:04;15.90;73.70
23633;DHT22;11993;48.748;9.166;2023-08-06T15:04:31;15.90;75.20
23633;DHT22;11993;48.748;9.166;2023-08-06T15:06:56;15.90;74.80
23633;DHT22;11993;48.748;9.166;2023-08-06T15:09:22;15.90;75.80
23633;DHT22;11993;48.748;9.166;2023-08-06T15:11:48;15.80;75.60
23633;DHT22;11993;48.748;9.166;2023-08-06T15:14:14;16.00;74.50
23633;DHT22;11993;48.748;9.166;2023-08-06T15:16:40;16.10;74.70
23633;DHT22;11993;48.748;9.166;2023-08-06T15:19:06;16.10;73.20
23633;DHT22;11993;48.748;9.166;2023-08-06T15:21:31;16.20;72.50
23633;DHT22;11993;48.748;9.166;2023-08-06T15:23:57;16.60;71.50
23633;DHT22;11993;48.748;9.166;2023-08-06T15:26:23;17.00;70.80
23633;DHT22;11993;48.748;9.166;2023-08-06T15:28:48;16.80;69.30
23633;DHT22;11993;48.748;9.166;2023-08-06T15:31:14;16.70;69.70
23633;DHT22;11993;48.748;9.166;2023-08-06T15:33:39;16.80;69.20
23633;DHT22;11993;48.748;9.166;2023-08-06T15:36:05;16.80;68.80
23633;DHT22;11993;48.748;9.166;2023-08-06T15:38:31;16.80;68.90